sensor_id;sensor_type;location;lat;lon;timestamp;pressure;altitude;pressure_sealevel;temperature;humidity
46087;BME280;31824;49.648;8.640;2022-08-30T00:02:53;100488.19;;;22.03;52.26
46087;BME280;31824;49.648;8.640;2022-08-30T00:05:55;100488.03;;;22.00;52.63
46087;BME280;31824;49.648;8.640;2022-08-30T00:08:56;100485.13;;;21.95;52.69
46087;BME280;31824;49.648;8.640;2022-08-30T00:11:58;100485.25;;;21.80;54.98
46087;BME280;31824;49.648;8.640;2022-08-30T00:15:00;100487.94;;;21.80;54.38
46087;BME280;31824;49.648;8.640;2022-08-30T00:18:02;100482.66;;;21.82;54.68
46087;BME280;31824;49.648;8.640;2022-08-30T00:21:05;100482.59;;;21.98;53.73
46087;BME280;31824;49.648;8.640;2022-08-30T00:24:06;100482.47;;;21.95;55.38
46087;BME280;31824;49.648;8.640;2022-08-30T00:27:08;100475.28;;;22.12;53.70
46087;BME280;31824;49.648;8.640;2022-08-30T00:30:10;100478.34;;;22.02;54.81
46087;BME280;31824;49.648;8.640;2022-08-30T00:33:13;100474.84;;;22.21;53.49
46087;BME280;31824;49.648;8.640;2022-08-30T00:36:15;100472.66;;;21.96;54.55
46087;BME280;31824;49.648;8.640;2022-08-30T00:39:16;100480.47;;;22.09;53.91
46087;BME280;31824;49.648;8.640;2022-08-30T00:42:20;100473.28;;;22.08;53.93
46087;BME280;31824;49.648;8.640;2022-08-30T00:45:25;100479.66;;;22.10;53.96
46087;BME280;31824;49.648;8.640;2022-08-30T00:48:27;100482.31;;;22.10;53.84
46087;BME280;31824;49.648;8.640;2022-08-30T00:51:28;100489.03;;;22.02;56.00
46087;BME280;31824;49.648;8.640;2022-08-30T00:54:33;100497.84;;;21.99;54.15
46087;BME280;31824;49.648;8.640;2022-08-30T00:57:36;100498.00;;;21.68;56.41
46087;BME280;31824;49.648;8.640;2022-08-30T01:00:38;100499.69;;;21.33;59.00
46087;BME280;31824;49.648;8.640;2022-08-30T01:03:40;100509.03;;;21.08;62.62
46087;BME280;31824;49.648;8.640;2022-08-30T01:06:43;100506.38;;;20.77;64.88
46087;BME280;31824;49.648;8.640;2022-08-30T01:09:45;100508.31;;;20.33;68.62
46087;BME280;31824;49.648;8.640;2022-08-30T01:12:46;100509.63;;;20.24;72.38
46087;BME280;31824;49.648;8.640;2022-08-30T01:15:49;100505.78;;;19.89;76.40
46087;BME280;31824;49.648;8.640;2022-08-30T01:18:55;100508.50;;;19.61;79.28
46087;BME280;31824;49.648;8.640;2022-08-30T01:21:59;100510.72;;;19.68;82.13
46087;BME280;31824;49.648;8.640;2022-08-30T01:25:05;100517.56;;;19.50;85.24
46087;BME280;31824;49.648;8.640;2022-08-30T01:28:12;100512.97;;;19.04;90.69
46087;BME280;31824;49.648;8.640;2022-08-30T01:31:14;100510.53;;;18.80;95.47
46087;BME280;31824;49.648;8.640;2022-08-30T01:34:16;100501.16;;;18.59;97.47
46087;BME280;31824;49.648;8.640;2022-08-30T01:37:21;100501.38;;;18.48;95.46
46087;BME280;31824;49.648;8.640;2022-08-30T01:40:24;100511.41;;;18.52;99.29
46087;BME280;31824;49.648;8.640;2022-08-30T01:43:26;100508.75;;;18.39;100.00
46087;BME280;31824;49.648;8.640;2022-08-30T01:46:32;100495.47;;;18.39;99.03
46087;BME280;31824;49.648;8.640;2022-08-30T01:49:37;100495.28;;;18.22;100.00
46087;BME280;31824;49.648;8.640;2022-08-30T01:52:39;100499.44;;;18.19;100.00
46087;BME280;31824;49.648;8.640;2022-08-30T01:55:41;100495.66;;;18.15;100.00
46087;BME280;31824;49.648;8.640;2022-08-30T01:58:43;100491.28;;;18.16;100.00
46087;BME280;31824;49.648;8.640;2022-08-30T02:01:44;100484.63;;;17.96;100.00
46087;BME280;31824;49.648;8.640;2022-08-30T02:04:46;100484.34;;;17.66;100.00
46087;BME280;31824;49.648;8.640;2022-08-30T02:07:47;100486.31;;;17.82;100.00
46087;BME280;31824;49.648;8.640;2022-08-30T02:10:49;100479.03;;;17.66;100.00
46087;BME280;31824;49.648;8.640;2022-08-30T02:13:50;100471.97;;;17.66;100.00
46087;BME280;31824;49.648;8.640;2022-08-30T02:16:52;100489.84;;;17.69;100.00
46087;BME280;31824;49.648;8.640;2022-08-30T02:19:53;100494.13;;;17.53;100.00
46087;BME280;31824;49.648;8.640;2022-08-30T02:22:55;100502.59;;;17.48;100.00
46087;BME280;31824;49.648;8.640;2022-08-30T02:26:02;100502.19;;;17.55;100.00
46087;BME280;31824;49.648;8.640;2022-08-30T02:29:04;100494.28;;;17.43;100.00
46087;BME280;31824;49.648;8.640;2022-08-30T02:32:06;100498.53;;;17.28;100.00
46087;BME280;31824;49.648;8.640;2022-08-30T02:35:07;100490.72;;;17.43;100.00
46087;BME280;31824;49.648;8.640;2022-08-30T02:38:09;100487.59;;;17.23;100.00
46087;BME280;31824;49.648;8.640;2022-08-30T02:41:11;100489.47;;;17.37;100.00
46087;BME280;31824;49.648;8.640;2022-08-30T02:44:13;100487.75;;;17.13;100.00
46087;BME280;31824;49.648;8.640;2022-08-30T02:47:15;100479.00;;;17.14;100.00
46087;BME280;31824;49.648;8.640;2022-08-30T02:50:17;100488.63;;;17.00;100.00
46087;BME280;31824;49.648;8.640;2022-08-30T02:53:19;100490.44;;;17.01;100.00
46087;BME280;31824;49.648;8.640;2022-08-30T02:56:21;100489.66;;;17.27;100.00
46087;BME280;31824;49.648;8.640;2022-08-30T02:59:22;100487.72;;;17.25;100.00
46087;BME280;31824;49.648;8.640;2022-08-30T03:02:24;100474.22;;;16.96;100.00
46087;BME280;31824;49.648;8.640;2022-08-30T03:05:26;100473.59;;;16.63;100.00
46087;BME280;31824;49.648;8.640;2022-08-30T03:08:28;100464.28;;;16.57;100.00
46087;BME280;31824;49.648;8.640;2022-08-30T03:11:30;100466.81;;;16.55;100.00
46087;BME280;31824;49.648;8.640;2022-08-30T03:14:32;100476.56;;;16.68;100.00
46087;BME280;31824;49.648;8.640;2022-08-30T03:17:35;100475.28;;;16.75;100.00
46087;BME280;31824;49.648;8.640;2022-08-30T03:20:37;100469.59;;;16.57;100.00
46087;BME280;31824;49.648;8.640;2022-08-30T03:23:39;100458.97;;;16.57;100.00
46087;BME280;31824;49.648;8.640;2022-08-30T03:26:41;100450.84;;;16.67;100.00
46087;BME280;31824;49.648;8.640;2022-08-30T03:29:46;100468.84;;;16.71;100.00
46087;BME280;31824;49.648;8.640;2022-08-30T03:32:48;100460.38;;;16.51;100.00
46087;BME280;31824;49.648;8.640;2022-08-30T03:35:51;100466.34;;;16.61;100.00
46087;BME280;31824;49.648;8.640;2022-08-30T03:38:53;100471.69;;;16.37;100.00
46087;BME280;31824;49.648;8.640;2022-08-30T03:41:54;100477.72;;;16.23;100.00
46087;BME280;31824;49.648;8.640;2022-08-30T03:44:56;100469.72;;;16.34;100.00
46087;BME280;31824;49.648;8.640;2022-08-30T03:47:57;100468.50;;;16.17;100.00
46087;BME280;31824;49.648;8.640;2022-08-30T03:50:59;100451.91;;;16.08;100.00
46087;BME280;31824;49.648;8.640;2022-08-30T03:54:00;100461.13;;;16.01;100.00
46087;BME280;31824;49.648;8.640;2022-08-30T03:57:03;100460.44;;;16.16;100.00
46087;BME280;31824;49.648;8.640;2022-08-30T04:00:05;100460.69;;;15.95;100.00
46087;BME280;31824;49.648;8.640;2022-08-30T04:03:07;100458.22;;;16.22;100.00
46087;BME280;31824;49.648;8.640;2022-08-30T04:06:09;100462.03;;;16.26;100.00
46087;BME280;31824;49.648;8.640;2022-08-30T04:09:11;100460.44;;;16.16;100.00
46087;BME280;31824;49.648;8.640;2022-08-30T04:12:12;100460.31;;;16.14;100.00
46087;BME280;31824;49.648;8.640;2022-08-30T04:15:18;100464.81;;;15.92;100.00
46087;BME280;31824;49.648;8.640;2022-08-30T04:18:20;100465.75;;;15.80;100.00
46087;BME280;31824;49.648;8.640;2022-08-30T04:21:22;100463.06;;;16.04;100.00
46087;BME280;31824;49.648;8.640;2022-08-30T04:24:23;100463.66;;;15.88;100.00
46087;BME280;31824;49.648;8.640;2022-08-30T04:27:25;100480.44;;;15.77;100.00
46087;BME280;31824;49.648;8.640;2022-08-30T04:30:27;100472.88;;;16.05;100.00
46087;BME280;31824;49.648;8.640;2022-08-30T04:33:28;100478.41;;;15.84;100.00
46087;BME280;31824;49.648;8.640;2022-08-30T04:36:35;100471.59;;;16.00;100.00
46087;BME280;31824;49.648;8.640;2022-08-30T04:39:36;100474.59;;;15.93;100.00
46087;BME280;31824;49.648;8.640;2022-08-30T04:42:38;100471.03;;;16.04;100.00
46087;BME280;31824;49.648;8.640;2022-08-30T04:45:40;100464.13;;;15.94;100.00
46087;BME280;31824;49.648;8.640;2022-08-30T04:48:42;100466.41;;;15.90;100.00
46087;BME280;31824;49.648;8.640;2022-08-30T04:51:44;100473.13;;;15.84;100.00
46087;BME280;31824;49.648;8.640;2022-08-30T04:54:46;100487.44;;;15.64;100.00
46087;BME280;31824;49.648;8.640;2022-08-30T04:57:48;100484.56;;;15.73;100.00
46087;BME280;31824;49.648;8.640;2022-08-30T05:00:49;100484.50;;;15.83;100.00
46087;BME280;31824;49.648;8.640;2022-08-30T05:03:53;100493.69;;;15.77;100.00
46087;BME280;31824;49.648;8.640;2022-08-30T05:06:54;100490.09;;;15.64;100.00
46087;BME280;31824;49.648;8.640;2022-08-30T05:09:57;100492.59;;;15.51;100.00
46087;BME280;31824;49.648;8.640;2022-08-30T05:12:59;100500.16;;;15.34;100.00
46087;BME280;31824;49.648;8.640;2022-08-30T05:16:02;100504.09;;;15.51;100.00
46087;BME280;31824;49.648;8.640;2022-08-30T05:19:04;100497.66;;;15.60;100.00
46087;BME280;31824;49.648;8.640;2022-08-30T05:22:05;100506.31;;;15.57;100.00
46087;BME280;31824;49.648;8.640;2022-08-30T05:25:07;100503.97;;;15.84;100.00
46087;BME280;31824;49.648;8.640;2022-08-30T05:28:09;100509.69;;;15.78;100.00
46087;BME280;31824;49.648;8.640;2022-08-30T05:31:31;100504.53;;;15.80;100.00
46087;BME280;31824;49.648;8.640;2022-08-30T05:34:33;100520.56;;;15.93;100.00
46087;BME280;31824;49.648;8.640;2022-08-30T05:37:35;100523.78;;;15.89;100.00
46087;BME280;31824;49.648;8.640;2022-08-30T05:40:42;100523.13;;;16.03;100.00
46087;BME280;31824;49.648;8.640;2022-08-30T05:43:44;100528.19;;;16.12;100.00
46087;BME280;31824;49.648;8.640;2022-08-30T05:46:45;100530.59;;;16.09;100.00
46087;BME280;31824;49.648;8.640;2022-08-30T05:49:48;100533.25;;;16.09;100.00
46087;BME280;31824;49.648;8.640;2022-08-30T05:52:49;100533.97;;;16.18;100.00
46087;BME280;31824;49.648;8.640;2022-08-30T05:55:53;100527.72;;;16.30;100.00
46087;BME280;31824;49.648;8.640;2022-08-30T05:58:54;100536.69;;;15.96;100.00
46087;BME280;31824;49.648;8.640;2022-08-30T06:01:57;100530.69;;;15.99;100.00
46087;BME280;31824;49.648;8.640;2022-08-30T06:05:01;100531.97;;;16.04;100.00
46087;BME280;31824;49.648;8.640;2022-08-30T06:08:03;100521.84;;;16.22;100.00
46087;BME280;31824;49.648;8.640;2022-08-30T06:11:04;100513.19;;;16.25;100.00
46087;BME280;31824;49.648;8.640;2022-08-30T06:14:06;100520.69;;;16.30;100.00
46087;BME280;31824;49.648;8.640;2022-08-30T06:17:08;100524.50;;;16.10;100.00
46087;BME280;31824;49.648;8.640;2022-08-30T06:20:11;100512.16;;;16.11;100.00
46087;BME280;31824;49.648;8.640;2022-08-30T06:23:12;100506.97;;;16.24;100.00
46087;BME280;31824;49.648;8.640;2022-08-30T06:26:15;100506.72;;;16.33;100.00
46087;BME280;31824;49.648;8.640;2022-08-30T06:29:19;100505.91;;;16.46;100.00
46087;BME280;31824;49.648;8.640;2022-08-30T06:32:21;100506.72;;;16.57;100.00
46087;BME280;31824;49.648;8.640;2022-08-30T06:35:24;100509.16;;;16.42;100.00
46087;BME280;31824;49.648;8.640;2022-08-30T06:38:25;100512.59;;;16.52;100.00
46087;BME280;31824;49.648;8.640;2022-08-30T06:41:30;100512.75;;;16.91;100.00
46087;BME280;31824;49.648;8.640;2022-08-30T06:44:32;100509.75;;;16.86;100.00
46087;BME280;31824;49.648;8.640;2022-08-30T06:47:33;100523.25;;;17.01;100.00
46087;BME280;31824;49.648;8.640;2022-08-30T06:50:35;100520.66;;;17.15;100.00
46087;BME280;31824;49.648;8.640;2022-08-30T06:53:38;100515.63;;;17.31;100.00
46087;BME280;31824;49.648;8.640;2022-08-30T06:56:41;100511.41;;;17.35;100.00
46087;BME280;31824;49.648;8.640;2022-08-30T06:59:58;100533.22;;;17.68;100.00
46087;BME280;31824;49.648;8.640;2022-08-30T07:03:00;100528.84;;;17.82;100.00
46087;BME280;31824;49.648;8.640;2022-08-30T07:06:03;100533.50;;;17.72;100.00
46087;BME280;31824;49.648;8.640;2022-08-30T07:09:04;100539.56;;;17.83;100.00
46087;BME280;31824;49.648;8.640;2022-08-30T07:12:06;100537.13;;;17.86;100.00
46087;BME280;31824;49.648;8.640;2022-08-30T07:15:09;100539.84;;;18.00;100.00
46087;BME280;31824;49.648;8.640;2022-08-30T07:18:11;100542.50;;;18.13;100.00
46087;BME280;31824;49.648;8.640;2022-08-30T07:21:41;100538.13;;;18.41;100.00
46087;BME280;31824;49.648;8.640;2022-08-30T07:24:46;100541.88;;;18.58;100.00
46087;BME280;31824;49.648;8.640;2022-08-30T07:27:47;100543.47;;;18.96;100.00
46087;BME280;31824;49.648;8.640;2022-08-30T07:30:51;100549.38;;;19.18;100.00
46087;BME280;31824;49.648;8.640;2022-08-30T07:33:53;100544.63;;;19.28;100.00
46087;BME280;31824;49.648;8.640;2022-08-30T07:36:55;100550.34;;;19.34;100.00
46087;BME280;31824;49.648;8.640;2022-08-30T07:39:56;100546.47;;;19.57;100.00
46087;BME280;31824;49.648;8.640;2022-08-30T07:42:58;100551.50;;;19.67;100.00
46087;BME280;31824;49.648;8.640;2022-08-30T07:46:06;100551.75;;;19.85;100.00
46087;BME280;31824;49.648;8.640;2022-08-30T07:49:08;100557.22;;;20.02;100.00
46087;BME280;31824;49.648;8.640;2022-08-30T07:52:11;100552.13;;;20.21;100.00
46087;BME280;31824;49.648;8.640;2022-08-30T07:55:13;100552.75;;;20.32;100.00
46087;BME280;31824;49.648;8.640;2022-08-30T07:58:15;100558.19;;;20.34;100.00
46087;BME280;31824;49.648;8.640;2022-08-30T08:01:18;100553.72;;;20.49;100.00
46087;BME280;31824;49.648;8.640;2022-08-30T08:04:19;100545.34;;;20.73;100.00
46087;BME280;31824;49.648;8.640;2022-08-30T08:07:21;100548.88;;;20.88;100.00
46087;BME280;31824;49.648;8.640;2022-08-30T08:10:23;100551.78;;;21.08;100.00
46087;BME280;31824;49.648;8.640;2022-08-30T08:13:24;100558.47;;;21.33;100.00
46087;BME280;31824;49.648;8.640;2022-08-30T08:16:29;100548.47;;;21.62;100.00
46087;BME280;31824;49.648;8.640;2022-08-30T08:19:31;100551.13;;;21.78;98.75
46087;BME280;31824;49.648;8.640;2022-08-30T08:22:32;100557.59;;;22.00;97.64
46087;BME280;31824;49.648;8.640;2022-08-30T08:25:40;100549.91;;;22.24;89.20
46087;BME280;31824;49.648;8.640;2022-08-30T08:28:42;100549.91;;;22.24;85.48
46087;BME280;31824;49.648;8.640;2022-08-30T08:31:45;100541.16;;;22.63;82.05
46087;BME280;31824;49.648;8.640;2022-08-30T08:34:47;100543.13;;;22.85;75.13
46087;BME280;31824;49.648;8.640;2022-08-30T08:37:49;100545.25;;;22.92;73.26
46087;BME280;31824;49.648;8.640;2022-08-30T08:48:03;100544.91;;;23.61;68.53
46087;BME280;31824;49.648;8.640;2022-08-30T08:51:09;100538.31;;;23.74;66.24
46087;BME280;31824;49.648;8.640;2022-08-30T08:54:46;100535.78;;;23.77;65.71
46087;BME280;31824;49.648;8.640;2022-08-30T08:57:50;100532.25;;;23.98;66.69
46087;BME280;31824;49.648;8.640;2022-08-30T09:00:54;100534.16;;;24.21;64.32
46087;BME280;31824;49.648;8.640;2022-08-30T09:04:01;100529.78;;;24.66;63.56
46087;BME280;31824;49.648;8.640;2022-08-30T09:07:09;100526.63;;;24.77;61.03
46087;BME280;31824;49.648;8.640;2022-08-30T09:10:14;100526.63;;;24.77;62.84
46087;BME280;31824;49.648;8.640;2022-08-30T09:13:24;100524.63;;;24.94;61.64
46087;BME280;31824;49.648;8.640;2022-08-30T09:19:58;100527.47;;;25.22;57.76
46087;BME280;31824;49.648;8.640;2022-08-30T09:23:22;100524.25;;;25.32;58.34
46087;BME280;31824;49.648;8.640;2022-08-30T09:26:31;100513.84;;;25.40;58.57
46087;BME280;31824;49.648;8.640;2022-08-30T09:29:33;100516.47;;;25.63;58.95
46087;BME280;31824;49.648;8.640;2022-08-30T09:32:41;100524.09;;;25.74;57.89
46087;BME280;31824;49.648;8.640;2022-08-30T09:35:45;100509.97;;;25.82;57.20
46087;BME280;31824;49.648;8.640;2022-08-30T09:38:56;100502.38;;;25.70;56.51
46087;BME280;31824;49.648;8.640;2022-08-30T09:42:13;100505.94;;;25.94;55.63
46087;BME280;31824;49.648;8.640;2022-08-30T09:45:28;100508.53;;;26.17;54.50
46087;BME280;31824;49.648;8.640;2022-08-30T09:51:54;100506.28;;;26.58;54.97
46087;BME280;31824;49.648;8.640;2022-08-30T09:58:34;100493.84;;;26.62;55.25
46087;BME280;31824;49.648;8.640;2022-08-30T10:01:42;100493.03;;;26.65;51.85
46087;BME280;31824;49.648;8.640;2022-08-30T10:05:02;100493.25;;;26.71;52.00
46087;BME280;31824;49.648;8.640;2022-08-30T10:21:36;100465.00;;;27.48;48.95
46087;BME280;31824;49.648;8.640;2022-08-30T10:24:47;100463.22;;;27.48;46.25
46087;BME280;31824;49.648;8.640;2022-08-30T10:31:05;100463.88;;;27.73;46.04
46087;BME280;31824;49.648;8.640;2022-08-30T10:34:15;100455.78;;;27.73;45.41
46087;BME280;31824;49.648;8.640;2022-08-30T10:37:28;100457.47;;;28.03;44.21
46087;BME280;31824;49.648;8.640;2022-08-30T10:40:35;100458.84;;;28.58;43.67
46087;BME280;31824;49.648;8.640;2022-08-30T10:47:34;100455.81;;;28.08;41.48
46087;BME280;31824;49.648;8.640;2022-08-30T10:50:44;100449.25;;;27.98;42.06
46087;BME280;31824;49.648;8.640;2022-08-30T10:57:34;100447.34;;;28.29;40.64
46087;BME280;31824;49.648;8.640;2022-08-30T11:07:53;100434.38;;;29.35;38.57
46087;BME280;31824;49.648;8.640;2022-08-30T11:11:05;100450.34;;;28.79;38.47
46087;BME280;31824;49.648;8.640;2022-08-30T11:14:15;100448.44;;;28.37;40.63
46087;BME280;31824;49.648;8.640;2022-08-30T11:17:28;100439.84;;;28.55;39.12
46087;BME280;31824;49.648;8.640;2022-08-30T11:24:14;100441.25;;;28.76;39.47
46087;BME280;31824;49.648;8.640;2022-08-30T11:27:42;100433.91;;;28.70;38.87
46087;BME280;31824;49.648;8.640;2022-08-30T11:30:45;100443.53;;;28.97;39.36
46087;BME280;31824;49.648;8.640;2022-08-30T11:33:49;100434.78;;;28.69;37.60
46087;BME280;31824;49.648;8.640;2022-08-30T11:39:54;100427.25;;;29.38;37.19
46087;BME280;31824;49.648;8.640;2022-08-30T11:42:56;100431.78;;;29.39;40.03
46087;BME280;31824;49.648;8.640;2022-08-30T11:52:41;100427.50;;;30.01;36.75
46087;BME280;31824;49.648;8.640;2022-08-30T11:56:03;100429.19;;;30.50;35.48
46087;BME280;31824;49.648;8.640;2022-08-30T11:59:20;100416.50;;;30.47;36.87
46087;BME280;31824;49.648;8.640;2022-08-30T12:03:00;100423.75;;;30.46;38.71
46087;BME280;31824;49.648;8.640;2022-08-30T12:06:06;100425.84;;;30.68;35.23
46087;BME280;31824;49.648;8.640;2022-08-30T12:09:10;100413.13;;;30.63;34.93
46087;BME280;31824;49.648;8.640;2022-08-30T12:19:08;100410.13;;;30.45;37.51
46087;BME280;31824;49.648;8.640;2022-08-30T12:22:16;100404.22;;;29.62;38.04
46087;BME280;31824;49.648;8.640;2022-08-30T12:25:24;100403.88;;;29.42;39.06
46087;BME280;31824;49.648;8.640;2022-08-30T12:28:26;100402.44;;;29.17;41.55
46087;BME280;31824;49.648;8.640;2022-08-30T12:31:28;100402.66;;;29.76;40.59
46087;BME280;31824;49.648;8.640;2022-08-30T12:37:36;100403.78;;;29.88;36.53
46087;BME280;31824;49.648;8.640;2022-08-30T12:40:54;100399.75;;;29.64;37.06
46087;BME280;31824;49.648;8.640;2022-08-30T12:43:56;100396.97;;;29.59;38.31
46087;BME280;31824;49.648;8.640;2022-08-30T12:47:01;100396.13;;;29.16;42.67
46087;BME280;31824;49.648;8.640;2022-08-30T12:50:05;100394.69;;;29.84;36.80
46087;BME280;31824;49.648;8.640;2022-08-30T12:53:12;100403.66;;;30.37;38.35
46087;BME280;31824;49.648;8.640;2022-08-30T12:56:15;100392.50;;;29.63;35.65
46087;BME280;31824;49.648;8.640;2022-08-30T12:59:41;100381.03;;;29.27;36.12
46087;BME280;31824;49.648;8.640;2022-08-30T13:02:55;100380.88;;;29.69;39.39
46087;BME280;31824;49.648;8.640;2022-08-30T13:05:57;100383.69;;;29.75;35.64
46087;BME280;31824;49.648;8.640;2022-08-30T13:09:03;100387.53;;;29.39;36.63
46087;BME280;31824;49.648;8.640;2022-08-30T13:12:08;100375.97;;;29.00;40.44
46087;BME280;31824;49.648;8.640;2022-08-30T13:15:15;100375.94;;;28.99;42.84
46087;BME280;31824;49.648;8.640;2022-08-30T13:18:26;100382.38;;;30.02;37.39
46087;BME280;31824;49.648;8.640;2022-08-30T13:21:32;100377.84;;;30.02;38.26
46087;BME280;31824;49.648;8.640;2022-08-30T13:24:34;100366.97;;;29.97;37.05
46087;BME280;31824;49.648;8.640;2022-08-30T13:27:37;100363.84;;;29.74;35.35
46087;BME280;31824;49.648;8.640;2022-08-30T13:30:40;100359.59;;;29.38;36.80
46087;BME280;31824;49.648;8.640;2022-08-30T13:33:41;100344.13;;;29.31;37.11
46087;BME280;31824;49.648;8.640;2022-08-30T13:36:49;100348.84;;;28.95;38.80
46087;BME280;31824;49.648;8.640;2022-08-30T13:39:51;100344.13;;;29.31;37.79
46087;BME280;31824;49.648;8.640;2022-08-30T13:42:53;100351.09;;;30.25;39.38
46087;BME280;31824;49.648;8.640;2022-08-30T13:45:55;100342.78;;;30.77;34.86
46087;BME280;31824;49.648;8.640;2022-08-30T13:49:04;100336.34;;;30.69;35.96
46087;BME280;31824;49.648;8.640;2022-08-30T13:52:07;100335.31;;;30.56;36.06
46087;BME280;31824;49.648;8.640;2022-08-30T13:55:24;100352.44;;;30.55;36.24
46087;BME280;31824;49.648;8.640;2022-08-30T13:58:26;100335.50;;;30.72;35.22
46087;BME280;31824;49.648;8.640;2022-08-30T14:01:28;100338.69;;;31.10;34.92
46087;BME280;31824;49.648;8.640;2022-08-30T14:04:50;100323.38;;;31.17;34.19
46087;BME280;31824;49.648;8.640;2022-08-30T14:07:51;100330.94;;;30.71;35.46
46087;BME280;31824;49.648;8.640;2022-08-30T14:10:54;100328.38;;;30.16;34.61
46087;BME280;31824;49.648;8.640;2022-08-30T14:13:55;100335.69;;;30.21;35.66
46087;BME280;31824;49.648;8.640;2022-08-30T14:17:17;100313.78;;;30.72;33.61
46087;BME280;31824;49.648;8.640;2022-08-30T14:20:19;100325.28;;;31.29;33.17
46087;BME280;31824;49.648;8.640;2022-08-30T14:23:21;100319.78;;;31.20;34.75
46087;BME280;31824;49.648;8.640;2022-08-30T14:26:30;100309.25;;;31.55;35.28
46087;BME280;31824;49.648;8.640;2022-08-30T14:29:34;100310.38;;;31.76;32.93
46087;BME280;31824;49.648;8.640;2022-08-30T14:32:36;100301.81;;;31.31;32.76
46087;BME280;31824;49.648;8.640;2022-08-30T14:35:38;100307.66;;;31.76;32.81
46087;BME280;31824;49.648;8.640;2022-08-30T14:38:39;100302.38;;;32.04;33.28
46087;BME280;31824;49.648;8.640;2022-08-30T14:41:45;100299.66;;;32.04;33.00
46087;BME280;31824;49.648;8.640;2022-08-30T14:44:47;100299.03;;;32.46;32.93
46087;BME280;31824;49.648;8.640;2022-08-30T14:47:57;100294.09;;;31.84;33.63
46087;BME280;31824;49.648;8.640;2022-08-30T14:50:59;100290.00;;;31.27;33.46
46087;BME280;31824;49.648;8.640;2022-08-30T14:54:00;100286.06;;;31.01;33.16
46087;BME280;31824;49.648;8.640;2022-08-30T14:57:02;100282.06;;;30.63;35.88
46087;BME280;31824;49.648;8.640;2022-08-30T15:00:06;100278.66;;;30.81;35.14
46087;BME280;31824;49.648;8.640;2022-08-30T15:03:08;100278.75;;;30.92;35.26
46087;BME280;31824;49.648;8.640;2022-08-30T15:06:12;100270.91;;;31.18;33.18
46087;BME280;31824;49.648;8.640;2022-08-30T15:09:16;100271.19;;;31.52;34.41
46087;BME280;31824;49.648;8.640;2022-08-30T15:12:23;100276.03;;;31.89;33.64
46087;BME280;31824;49.648;8.640;2022-08-30T15:15:25;100269.59;;;31.74;33.27
46087;BME280;31824;49.648;8.640;2022-08-30T15:18:26;100273.28;;;31.84;32.84
46087;BME280;31824;49.648;8.640;2022-08-30T15:21:37;100270.31;;;31.55;31.85
46087;BME280;31824;49.648;8.640;2022-08-30T15:24:39;100261.09;;;31.31;32.54
46087;BME280;31824;49.648;8.640;2022-08-30T15:27:41;100255.00;;;31.61;32.71
46087;BME280;31824;49.648;8.640;2022-08-30T15:30:42;100266.59;;;31.40;32.83
46087;BME280;31824;49.648;8.640;2022-08-30T15:33:44;100255.69;;;31.36;31.95
46087;BME280;31824;49.648;8.640;2022-08-30T15:36:46;100255.69;;;31.36;34.48
46087;BME280;31824;49.648;8.640;2022-08-30T15:39:51;100248.88;;;30.87;34.35
46087;BME280;31824;49.648;8.640;2022-08-30T15:42:52;100247.81;;;30.71;33.59
46087;BME280;31824;49.648;8.640;2022-08-30T15:45:54;100254.03;;;30.64;32.97
46087;BME280;31824;49.648;8.640;2022-08-30T15:49:03;100248.72;;;30.72;32.19
46087;BME280;31824;49.648;8.640;2022-08-30T15:52:04;100248.56;;;30.59;32.75
46087;BME280;31824;49.648;8.640;2022-08-30T15:55:08;100243.38;;;30.78;33.53
46087;BME280;31824;49.648;8.640;2022-08-30T15:58:10;100241.56;;;30.80;32.42
46087;BME280;31824;49.648;8.640;2022-08-30T16:01:12;100244.13;;;30.68;31.94
46087;BME280;31824;49.648;8.640;2022-08-30T16:04:14;100247.69;;;30.62;32.96
46087;BME280;31824;49.648;8.640;2022-08-30T16:07:18;100246.53;;;30.41;32.49
46087;BME280;31824;49.648;8.640;2022-08-30T16:10:20;100242.19;;;30.54;33.29
46087;BME280;31824;49.648;8.640;2022-08-30T16:13:21;100242.81;;;30.35;35.40
46087;BME280;31824;49.648;8.640;2022-08-30T16:16:25;100242.56;;;30.13;36.42
46087;BME280;31824;49.648;8.640;2022-08-30T16:19:27;100255.81;;;29.94;36.02
46087;BME280;31824;49.648;8.640;2022-08-30T16:22:29;100242.22;;;29.90;35.43
46087;BME280;31824;49.648;8.640;2022-08-30T16:25:31;100241.00;;;29.69;34.16
46087;BME280;31824;49.648;8.640;2022-08-30T16:28:41;100238.38;;;29.75;37.47
46087;BME280;31824;49.648;8.640;2022-08-30T16:31:44;100237.50;;;29.78;36.22
46087;BME280;31824;49.648;8.640;2022-08-30T16:34:47;100234.50;;;29.58;39.37
46087;BME280;31824;49.648;8.640;2022-08-30T16:37:50;100230.47;;;29.31;35.68
46087;BME280;31824;49.648;8.640;2022-08-30T16:40:51;100230.53;;;29.34;38.60
46087;BME280;31824;49.648;8.640;2022-08-30T16:43:53;100231.19;;;29.22;35.35
46087;BME280;31824;49.648;8.640;2022-08-30T16:46:55;100235.56;;;29.14;35.56
46087;BME280;31824;49.648;8.640;2022-08-30T16:50:00;100234.53;;;29.07;34.20
46087;BME280;31824;49.648;8.640;2022-08-30T16:53:01;100232.00;;;29.18;37.19
46087;BME280;31824;49.648;8.640;2022-08-30T16:56:08;100230.72;;;28.96;39.13
46087;BME280;31824;49.648;8.640;2022-08-30T16:59:10;100225.91;;;28.78;35.30
46087;BME280;31824;49.648;8.640;2022-08-30T17:02:13;100227.06;;;28.92;36.85
46087;BME280;31824;49.648;8.640;2022-08-30T17:05:14;100239.91;;;29.06;35.91
46087;BME280;31824;49.648;8.640;2022-08-30T17:08:16;100238.56;;;28.80;37.32
46087;BME280;31824;49.648;8.640;2022-08-30T17:11:18;100237.28;;;28.61;38.02